Time,TemperatureF,DewpointF,PressureIn,WindDirection,WindDirectionDegrees,WindSpeedMPH,WindSpeedGustMPH,Humidity,HourlyPrecipIn,Conditions,Clouds,dailyrainin,SolarRadiationWatts/m^2,SoftwareType,DateUTC
2013-05-04 00:03:00,48.7,48.0,29.90,ENE,68,11.0,13.0,96,0.00,,,0.88,0,weatherlink.com 1.10,2013-05-04 05:03:00,
2013-05-04 00:18:00,48.9,48.0,29.90,ENE,59,16.0,21.0,96,0.00,,,0.00,0,weatherlink.com 1.10,2013-05-04 05:18:00,
2013-05-04 00:33:00,49.0,48.0,29.91,ENE,70,11.0,18.0,95,0.00,,,0.00,0,weatherlink.com 1.10,2013-05-04 05:33:00,
2013-05-04 00:48:00,48.9,48.0,29.91,ENE,74,11.0,15.0,95,0.00,,,0.00,0,weatherlink.com 1.10,2013-05-04 05:48:00,
2013-05-04 01:03:00,48.9,48.0,29.90,ENE,71,7.0,12.0,95,0.00,,,0.00,0,weatherlink.com 1.10,2013-05-04 06:03:00,
2013-05-04 01:18:00,48.9,47.0,29.90,East,80,8.0,12.0,94,0.00,,,0.00,0,weatherlink.com 1.10,2013-05-04 06:18:00,
2013-05-04 01:33:00,49.0,47.0,29.91,ENE,76,5.0,13.0,94,0.00,,,0.00,0,weatherlink.com 1.10,2013-05-04 06:33:00,
2013-05-04 01:49:00,49.4,48.0,29.93,ESE,117,7.0,9.0,95,0.00,,,0.00,0,weatherlink.com 1.10,2013-05-04 06:49:00,
2013-05-04 02:04:00,49.6,48.0,29.91,East,84,8.0,11.0,94,0.00,,,0.00,0,weatherlink.com 1.10,2013-05-04 07:04:00,
2013-05-04 02:19:00,49.5,48.0,29.91,ENE,74,4.0,8.0,94,0.00,,,0.00,0,weatherlink.com 1.10,2013-05-04 07:19:00,
2013-05-04 02:34:00,49.5,48.0,29.90,NE,51,3.0,6.0,94,0.00,,,0.00,0,weatherlink.com 1.10,2013-05-04 07:34:00,
2013-05-04 02:49:00,49.4,48.0,29.91,NE,55,4.0,6.0,94,0.00,,,0.00,0,weatherlink.com 1.10,2013-05-04 07:49:00,
2013-05-04 03:04:00,49.3,48.0,29.90,ENE,60,5.0,8.0,95,0.00,,,0.00,0,weatherlink.com 1.10,2013-05-04 08:04:00,
2013-05-04 03:19:00,49.3,48.0,29.90,NE,52,7.0,10.0,95,0.00,,,0.00,0,weatherlink.com 1.10,2013-05-04 08:19:00,
2013-05-04 03:34:00,49.4,48.0,29.90,ENE,61,4.0,9.0,94,0.00,,,0.00,0,weatherlink.com 1.10,2013-05-04 08:34:00,
2013-05-04 03:49:00,49.6,48.0,29.90,ENE,73,7.0,9.0,94,0.00,,,0.00,0,weatherlink.com 1.10,2013-05-04 08:49:00,
2013-05-04 04:04:00,49.4,48.0,29.91,East,83,7.0,9.0,93,0.00,,,0.00,0,weatherlink.com 1.10,2013-05-04 09:04:00,
2013-05-04 04:19:00,49.4,48.0,29.91,ENE,75,5.0,9.0,94,0.00,,,0.00,0,weatherlink.com 1.10,2013-05-04 09:19:00,
2013-05-04 04:34:00,49.3,47.0,29.91,ENE,78,7.0,9.0,93,0.00,,,0.00,0,weatherlink.com 1.10,2013-05-04 09:34:00,
2013-05-04 04:49:00,49.1,48.0,29.90,ENE,67,5.0,8.0,94,0.00,,,0.00,0,weatherlink.com 1.10,2013-05-04 09:49:00,
2013-05-04 05:04:00,49.2,48.0,29.90,ENE,57,11.0,11.0,94,0.00,,,0.00,0,weatherlink.com 1.10,2013-05-04 10:04:00,
2013-05-04 05:19:00,49.4,48.0,29.89,ENE,61,10.0,14.0,94,0.00,,,0.00,0,weatherlink.com 1.10,2013-05-04 10:19:00,
2013-05-04 05:34:00,49.2,47.0,29.90,NE,52,5.0,9.0,93,0.00,,,0.00,0,weatherlink.com 1.10,2013-05-04 10:34:00,
2013-05-04 05:49:00,49.1,47.0,29.90,NNE,27,4.0,6.0,93,0.00,,,0.00,0,weatherlink.com 1.10,2013-05-04 10:49:00,
2013-05-04 06:04:00,49.0,47.0,29.90,NE,52,5.0,11.0,94,0.00,,,0.00,9,weatherlink.com 1.10,2013-05-04 11:04:00,
2013-05-04 06:19:00,49.1,48.0,29.90,NE,49,4.0,9.0,94,0.00,,,0.00,21,weatherlink.com 1.10,2013-05-04 11:19:00,
2013-05-04 06:34:00,49.2,48.0,29.91,ENE,72,8.0,10.0,94,0.00,,,0.00,44,weatherlink.com 1.10,2013-05-04 11:34:00,
2013-05-04 06:49:00,49.6,48.0,29.91,ENE,58,2.0,9.0,94,0.00,,,0.00,72,weatherlink.com 1.10,2013-05-04 11:49:00,
2013-05-04 07:04:00,50.0,48.0,29.91,NE,52,5.0,9.0,93,0.00,,,0.00,83,weatherlink.com 1.10,2013-05-04 12:04:00,
2013-05-04 07:19:00,50.3,48.0,29.92,ENE,63,8.0,9.0,93,0.00,,,0.00,116,weatherlink.com 1.10,2013-05-04 12:19:00,
2013-05-04 07:34:00,51.2,49.0,29.92,NE,55,9.0,11.0,93,0.00,,,0.00,199,weatherlink.com 1.10,2013-05-04 12:34:00,
2013-05-04 07:49:00,52.2,50.0,29.92,NE,56,10.0,15.0,91,0.00,,,0.00,206,weatherlink.com 1.10,2013-05-04 12:49:00,
2013-05-04 08:04:00,52.7,50.0,29.93,ENE,69,12.0,15.0,91,0.00,,,0.00,297,weatherlink.com 1.10,2013-05-04 13:04:00,
2013-05-04 08:19:00,53.6,51.0,29.93,ENE,74,10.0,12.0,90,0.00,,,0.00,299,weatherlink.com 1.10,2013-05-04 13:19:00,
2013-05-04 08:34:00,54.0,52.0,29.94,ENE,74,12.0,12.0,91,0.00,,,0.00,241,weatherlink.com 1.10,2013-05-04 13:34:00,
2013-05-04 08:49:00,53.9,51.0,29.94,ENE,58,10.0,11.0,91,0.00,,,0.00,265,weatherlink.com 1.10,2013-05-04 13:49:00,
2013-05-04 09:04:00,54.5,52.0,29.94,NE,49,6.0,11.0,90,0.00,,,0.00,267,weatherlink.com 1.10,2013-05-04 14:04:00,
2013-05-04 09:19:00,55.1,52.0,29.95,NE,46,6.0,8.0,90,0.00,,,0.00,360,weatherlink.com 1.10,2013-05-04 14:19:00,
2013-05-04 09:34:00,56.2,53.0,29.95,ENE,65,9.0,12.0,89,0.00,,,0.00,394,weatherlink.com 1.10,2013-05-04 14:34:00,
2013-05-04 09:49:00,57.5,55.0,29.95,NE,46,8.0,12.0,90,0.00,,,0.00,710,weatherlink.com 1.10,2013-05-04 14:49:00,
2013-05-04 10:05:00,59.0,55.0,29.95,ENE,67,9.0,12.0,86,0.00,,,0.00,362,weatherlink.com 1.10,2013-05-04 15:05:00,
2013-05-04 10:20:00,59.5,56.0,29.95,East,89,14.0,15.0,87,0.00,,,0.00,411,weatherlink.com 1.10,2013-05-04 15:20:00,
2013-05-04 10:35:00,60.7,56.0,29.95,ENE,62,11.0,14.0,84,0.00,,,0.00,396,weatherlink.com 1.10,2013-05-04 15:35:00,
2013-05-04 10:50:00,60.8,56.0,29.95,NE,56,9.0,16.0,84,0.00,,,0.00,394,weatherlink.com 1.10,2013-05-04 15:50:00,
2013-05-04 11:05:00,62.0,57.0,29.95,East,86,10.0,13.0,83,0.00,,,0.00,570,weatherlink.com 1.10,2013-05-04 16:05:00,
2013-05-04 11:20:00,62.7,56.0,29.95,ENE,76,8.0,17.0,78,0.00,,,0.00,468,weatherlink.com 1.10,2013-05-04 16:20:00,
2013-05-04 11:35:00,63.4,55.0,29.95,ENE,78,12.0,17.0,74,0.00,,,0.00,471,weatherlink.com 1.10,2013-05-04 16:35:00,
2013-05-04 11:50:00,63.6,56.0,29.95,East,84,13.0,16.0,76,0.00,,,0.00,536,weatherlink.com 1.10,2013-05-04 16:50:00,
2013-05-04 12:05:00,63.4,55.0,29.95,East,84,11.0,15.0,74,0.00,,,0.00,339,weatherlink.com 1.10,2013-05-04 17:05:00,
2013-05-04 12:20:00,63.4,56.0,29.95,East,91,11.0,15.0,78,0.00,,,0.00,345,weatherlink.com 1.10,2013-05-04 17:20:00,
2013-05-04 12:35:00,63.9,56.0,29.94,East,86,10.0,14.0,75,0.00,,,0.00,401,weatherlink.com 1.10,2013-05-04 17:35:00,
2013-05-04 12:50:00,64.8,56.0,29.94,ENE,64,10.0,14.0,73,0.00,,,0.00,512,weatherlink.com 1.10,2013-05-04 17:50:00,
2013-05-04 13:05:00,65.6,57.0,29.93,ENE,57,15.0,17.0,73,0.00,,,0.00,373,weatherlink.com 1.10,2013-05-04 18:05:00,
2013-05-04 13:20:00,64.7,57.0,29.93,ENE,66,13.0,18.0,77,0.00,,,0.00,1099,weatherlink.com 1.10,2013-05-04 18:20:00,
2013-05-04 13:35:00,65.4,58.0,29.92,ENE,61,13.0,18.0,77,0.00,,,0.00,1281,weatherlink.com 1.10,2013-05-04 18:35:00,
2013-05-04 13:50:00,64.3,58.0,29.92,ENE,61,14.0,15.0,80,0.00,,,0.00,253,weatherlink.com 1.10,2013-05-04 18:50:00,
2013-05-04 14:05:00,63.8,59.0,29.92,NE,42,13.0,15.0,83,0.00,,,0.00,381,weatherlink.com 1.10,2013-05-04 19:05:00,
2013-05-04 14:20:00,65.4,59.0,29.91,ENE,67,13.0,17.0,81,0.00,,,0.00,429,weatherlink.com 1.10,2013-05-04 19:20:00,
2013-05-04 14:35:00,65.7,59.0,29.91,ENE,64,14.0,17.0,78,0.00,,,0.00,468,weatherlink.com 1.10,2013-05-04 19:35:00,
2013-05-04 14:50:00,66.5,60.0,29.91,NNE,29,12.0,16.0,79,0.00,,,0.00,881,weatherlink.com 1.10,2013-05-04 19:50:00,
2013-05-04 15:05:00,67.2,58.0,29.91,ENE,67,17.0,21.0,72,0.00,,,0.00,872,weatherlink.com 1.10,2013-05-04 20:05:00,
2013-05-04 15:20:00,67.3,56.0,29.90,NE,55,12.0,21.0,68,0.00,,,0.00,471,weatherlink.com 1.10,2013-05-04 20:20:00,
2013-05-04 15:35:00,67.2,55.0,29.90,ENE,61,17.0,22.0,66,0.00,,,0.00,710,weatherlink.com 1.10,2013-05-04 20:35:00,
2013-05-04 15:50:00,67.5,54.0,29.90,East,82,14.0,21.0,63,0.00,,,0.00,617,weatherlink.com 1.10,2013-05-04 20:50:00,
2013-05-04 16:05:00,67.5,56.0,29.90,ENE,77,13.0,19.0,67,0.00,,,0.00,689,weatherlink.com 1.10,2013-05-04 21:05:00,
2013-05-04 16:20:00,67.4,56.0,29.90,NE,51,13.0,20.0,67,0.00,,,0.00,524,weatherlink.com 1.10,2013-05-04 21:20:00,
2013-05-04 16:35:00,67.1,55.0,29.90,ENE,73,15.0,21.0,66,0.00,,,0.00,390,weatherlink.com 1.10,2013-05-04 21:35:00,
2013-05-04 16:50:00,66.8,55.0,29.90,East,80,17.0,23.0,67,0.00,,,0.00,246,weatherlink.com 1.10,2013-05-04 21:50:00,
2013-05-04 17:05:00,66.8,55.0,29.90,ENE,60,11.0,18.0,67,0.00,,,0.00,260,weatherlink.com 1.10,2013-05-04 22:05:00,
2013-05-04 17:20:00,67.2,55.0,29.90,ENE,74,11.0,16.0,66,0.00,,,0.00,214,weatherlink.com 1.10,2013-05-04 22:20:00,
2013-05-04 17:35:00,67.1,54.0,29.90,East,101,14.0,20.0,63,0.00,,,0.00,146,weatherlink.com 1.10,2013-05-04 22:35:00,
2013-05-04 17:50:00,66.7,54.0,29.90,East,96,14.0,19.0,63,0.00,,,0.00,167,weatherlink.com 1.10,2013-05-04 22:50:00,
2013-05-04 18:05:00,66.1,52.0,29.90,East,92,11.0,21.0,61,0.00,,,0.00,162,weatherlink.com 1.10,2013-05-04 23:05:00,
2013-05-04 18:20:00,66.0,52.0,29.91,East,80,15.0,21.0,60,0.00,,,0.00,120,weatherlink.com 1.10,2013-05-04 23:20:00,
2013-05-04 18:35:00,65.6,53.0,29.91,East,92,13.0,14.0,64,0.00,,,0.00,84,weatherlink.com 1.10,2013-05-04 23:35:00,
2013-05-04 18:50:00,64.9,52.0,29.91,East,92,9.0,15.0,63,0.00,,,0.00,65,weatherlink.com 1.10,2013-05-04 23:50:00,
2013-05-04 19:05:00,64.0,52.0,29.91,ENE,73,8.0,13.0,66,0.00,,,0.00,54,weatherlink.com 1.10,2013-05-05 00:05:00,
2013-05-04 19:20:00,63.4,52.0,29.92,East,94,10.0,13.0,66,0.00,,,0.00,33,weatherlink.com 1.10,2013-05-05 00:20:00,
2013-05-04 19:35:00,62.9,52.0,29.92,ENE,74,8.0,13.0,68,0.00,,,0.00,26,weatherlink.com 1.10,2013-05-05 00:35:00,
2013-05-04 19:50:00,62.0,52.0,29.93,ENE,76,7.0,11.0,69,0.00,,,0.00,9,weatherlink.com 1.10,2013-05-05 00:50:00,
2013-05-04 20:05:00,61.4,52.0,29.93,East,80,8.0,10.0,70,0.00,,,0.00,0,weatherlink.com 1.10,2013-05-05 01:05:00,
2013-05-04 20:20:00,61.5,52.0,29.94,East,80,6.0,10.0,70,0.00,,,0.00,0,weatherlink.com 1.10,2013-05-05 01:20:00,
2013-05-04 20:35:00,60.5,52.0,29.95,ENE,69,5.0,8.0,73,0.00,,,0.00,0,weatherlink.com 1.10,2013-05-05 01:35:00,
2013-05-04 20:50:00,59.9,52.0,29.95,ENE,66,4.0,7.0,75,0.00,,,0.00,0,weatherlink.com 1.10,2013-05-05 01:50:00,
2013-05-04 21:05:00,59.6,52.0,29.95,SE,137,2.0,8.0,77,0.00,,,0.00,0,weatherlink.com 1.10,2013-05-05 02:05:00,
2013-05-04 21:20:00,59.0,53.0,29.96,SE,138,4.0,5.0,79,0.00,,,0.00,0,weatherlink.com 1.10,2013-05-05 02:20:00,
2013-05-04 21:35:00,58.1,53.0,29.96,SE,146,3.0,5.0,82,0.00,,,0.00,0,weatherlink.com 1.10,2013-05-05 02:35:00,
2013-05-04 21:50:00,57.7,54.0,29.96,SSW,194,4.0,6.0,86,0.00,,,0.00,0,weatherlink.com 1.10,2013-05-05 02:50:00,
2013-05-04 22:05:00,57.6,54.0,29.97,SSW,209,5.0,7.0,88,0.00,,,0.00,0,weatherlink.com 1.10,2013-05-05 03:05:00,
2013-05-04 22:20:00,57.4,54.0,29.96,SSW,209,4.0,5.0,88,0.00,,,0.00,0,weatherlink.com 1.10,2013-05-05 03:20:00,
2013-05-04 22:35:00,57.3,54.0,29.96,SSW,209,5.0,6.0,89,0.00,,,0.00,0,weatherlink.com 1.10,2013-05-05 03:35:00,
2013-05-04 22:50:00,57.1,54.0,29.96,SSW,209,1.0,7.0,90,0.00,,,0.00,0,weatherlink.com 1.10,2013-05-05 03:50:00,
2013-05-04 23:05:00,56.9,54.0,29.96,SSW,209,0.0,2.0,91,0.00,,,0.00,0,weatherlink.com 1.10,2013-05-05 04:05:00,
2013-05-04 23:20:00,57.1,55.0,29.96,SSW,209,0.0,1.0,91,0.00,,,0.00,0,weatherlink.com 1.10,2013-05-05 04:20:00,
2013-05-04 23:35:00,57.4,55.0,29.96,SSW,209,3.0,4.0,90,0.00,,,0.00,0,weatherlink.com 1.10,2013-05-05 04:35:00,
2013-05-04 23:50:00,57.1,55.0,29.96,SSW,209,0.0,2.0,91,0.00,,,0.00,0,weatherlink.com 1.10,2013-05-05 04:50:00,